Time;durP1;ratioP1;P1;durP2;ratioP2;P2;SDS_P1;SDS_P2;PMS_P1;PMS_P2;Temp;Humidity;BMP_temperature;BMP_pressure;BME280_temperature;BME280_humidity;BME280_pressure;Samples;Min_cycle;Max_cycle;Signal;HPM_P1;HPM_P2
2022/09/10 00:01:58;;;;;;;17.30;14.58;;;;;;;12.04;99.27;99508.94;1697734;82;20950;-60
2022/09/10 00:04:24;;;;;;;16.55;14.85;;;;;;;12.12;99.40;99517.20;1709095;81;20887;-61
2022/09/10 00:06:51;;;;;;;17.67;14.38;;;;;;;12.12;99.40;99517.20;1693319;83;21646;-60
2022/09/10 00:09:18;;;;;;;21.10;16.47;;;;;;;12.11;99.42;99526.00;1679962;83;20938;-60
2022/09/10 00:11:45;;;;;;;15.50;13.18;;;;;;;12.09;99.44;99514.77;1685125;84;21061;-60
2022/09/10 00:14:19;;;;;;;17.85;14.95;;;;;;;12.10;99.60;99513.85;1691629;83;20922;-60
2022/09/10 00:16:45;;;;;;;16.05;14.35;;;;;;;12.06;99.52;99509.70;1687820;83;20955;-60
2022/09/10 00:19:13;;;;;;;16.00;13.13;;;;;;;12.06;99.52;99509.70;1689356;84;21456;-60
2022/09/10 00:21:40;;;;;;;13.28;11.88;;;;;;;12.07;99.56;99514.00;1694484;83;21403;-60
2022/09/10 00:24:07;;;;;;;14.20;11.60;;;;;;;12.09;99.64;99505.61;1700530;83;21940;-60
2022/09/10 00:26:39;;;;;;;11.08;9.93;;;;;;;12.06;99.50;99497.46;1704746;82;21074;-61
2022/09/10 00:29:09;;;;;;;11.33;10.13;;;;;;;12.06;99.60;99494.01;1693683;83;21521;-61
2022/09/10 00:31:36;;;;;;;13.40;8.75;;;;;;;12.04;99.62;99495.86;1696361;82;20974;-61
2022/09/10 00:34:04;;;;;;;11.33;10.10;;;;;;;12.05;99.60;99496.25;1694264;83;21052;-61
2022/09/10 00:36:39;;;;;;;10.80;8.98;;;;;;;12.05;99.60;99502.80;1706227;82;21268;-60
2022/09/10 00:39:10;;;;;;;9.45;8.38;;;;;;;12.07;99.51;99506.15;1665101;83;21531;-61
2022/09/10 00:41:39;;;;;;;10.20;8.55;;;;;;;12.09;99.51;99510.84;1702210;83;20938;-61
2022/09/10 00:44:40;;;;;;;11.48;10.13;;;;;;;12.04;99.51;99505.02;1702846;82;20945;-61
2022/09/10 00:47:26;;;;;;;12.58;9.70;;;;;;;12.09;99.54;99513.45;1703015;83;20986;-61
2022/09/10 00:50:13;;;;;;;10.20;8.95;;;;;;;12.09;99.59;99505.61;1703361;83;21058;-61
2022/09/10 00:52:40;;;;;;;10.45;8.90;;;;;;;12.08;99.62;99505.23;1685355;83;20903;-61
2022/09/10 00:55:08;;;;;;;9.88;8.88;;;;;;;12.07;99.67;99492.63;1714516;82;20914;-61
2022/09/10 00:57:35;;;;;;;10.03;8.58;;;;;;;12.07;99.72;99493.06;1694052;83;20944;-60
2022/09/10 01:00:07;;;;;;;8.20;7.40;;;;;;;12.07;99.68;99493.06;1711228;81;21013;-61
2022/09/10 01:02:34;;;;;;;8.13;6.83;;;;;;;12.06;99.68;99490.92;1715803;83;20954;-60
2022/09/10 01:05:03;;;;;;;8.20;7.15;;;;;;;12.07;99.68;99487.83;1687484;81;21018;-61
2022/09/10 01:07:32;;;;;;;6.95;6.25;;;;;;;12.07;99.77;99486.52;1710249;83;20942;-61
2022/09/10 01:10:07;;;;;;;8.25;6.47;;;;;;;12.06;99.75;99488.30;1714415;83;20925;-60
2022/09/10 01:13:10;;;;;;;8.75;6.80;;;;;;;12.07;99.70;99485.22;1710352;83;21057;-60
2022/09/10 01:16:18;;;;;;;7.80;6.42;;;;;;;12.07;99.70;99485.22;1685462;83;21498;-60
2022/09/10 01:18:56;;;;;;;11.05;8.08;;;;;;;12.07;99.76;99480.84;1698228;83;20993;-60
2022/09/10 01:21:46;;;;;;;9.53;7.78;;;;;;;12.02;99.72;99476.81;1712202;81;20965;-60
2022/09/10 01:24:50;;;;;;;9.30;8.35;;;;;;;12.05;99.75;99479.25;1682523;84;20922;-60
2022/09/10 01:27:44;;;;;;;11.60;8.43;;;;;;;12.04;99.91;99488.01;1700529;82;20967;-61
2022/09/10 01:30:22;;;;;;;10.60;9.40;;;;;;;12.03;99.90;99482.41;1651500;85;21071;-60
2022/09/10 01:33:03;;;;;;;10.90;9.15;;;;;;;11.88;99.89;99461.05;1670405;84;21015;-61
2022/09/10 01:35:44;;;;;;;11.15;9.95;;;;;;;12.00;99.89;99487.81;1645554;85;20948;-61
2022/09/10 01:38:19;;;;;;;15.80;9.95;;;;;;;11.99;100.00;99483.05;1670285;84;20959;-60
2022/09/10 01:40:47;;;;;;;13.22;10.45;;;;;;;11.99;100.00;99483.05;1668564;84;20934;-61
2022/09/10 01:43:14;;;;;;;12.78;11.35;;;;;;;12.00;100.00;99476.05;1649772;85;21089;-61
2022/09/10 01:45:53;;;;;;;12.47;10.85;;;;;;;11.99;100.00;99475.68;1652155;85;21048;-60
2022/09/10 01:48:42;;;;;;;14.10;11.93;;;;;;;11.96;100.00;99469.28;1657866;85;21569;-60
2022/09/10 01:51:29;;;;;;;12.65;11.35;;;;;;;11.94;100.00;99469.39;1658295;86;21000;-61
2022/09/10 01:54:12;;;;;;;12.60;11.28;;;;;;;11.92;100.00;99469.93;1647650;86;20972;-61
2022/09/10 01:56:56;;;;;;;13.32;11.65;;;;;;;11.92;100.00;99471.70;1650540;85;21258;-60
2022/09/10 01:59:46;;;;;;;16.42;11.90;;;;;;;11.92;100.00;99465.17;1643566;85;20959;-61
2022/09/10 02:02:24;;;;;;;14.53;11.08;;;;;;;11.90;100.00;99465.71;1699720;83;20886;-61
2022/09/10 02:04:53;;;;;;;12.23;10.65;;;;;;;11.90;100.00;99465.71;1633248;86;20980;-60
2022/09/10 02:07:23;;;;;;;11.43;10.32;;;;;;;11.89;100.00;99460.11;1618559;86;21546;-61
2022/09/10 02:09:51;;;;;;;27.48;12.75;;;;;;;11.85;100.00;99458.98;1612727;86;21607;-61
2022/09/10 02:12:20;;;;;;;15.08;10.82;;;;;;;11.82;100.00;99465.66;1633192;86;20938;-61
2022/09/10 02:14:55;;;;;;;11.85;10.65;;;;;;;11.80;100.00;99464.91;1629763;86;20987;-61
2022/09/10 02:17:35;;;;;;;13.95;11.45;;;;;;;11.79;100.00;99465.84;1632029;86;21602;-61
2022/09/10 02:20:05;;;;;;;12.13;10.80;;;;;;;11.77;100.00;99465.08;1628370;86;21066;-61
2022/09/10 02:22:35;;;;;;;13.08;11.70;;;;;;;11.78;100.00;99471.14;1625045;86;21086;-61
2022/09/10 02:25:03;;;;;;;19.32;10.82;;;;;;;11.78;100.00;99461.52;1635098;86;20909;-60
2022/09/10 02:27:31;;;;;;;14.93;11.57;;;;;;;11.78;100.00;99461.52;1617450;86;21456;-61
2022/09/10 02:29:58;;;;;;;16.20;11.30;;;;;;;11.77;100.00;99457.23;1625852;86;20930;-61
2022/09/10 02:32:25;;;;;;;12.25;11.10;;;;;;;11.73;100.00;99458.31;1636610;86;21080;-61
2022/09/10 02:34:51;;;;;;;15.10;10.80;;;;;;;11.74;100.00;99448.25;1626402;86;21138;-60
2022/09/10 02:37:19;;;;;;;18.37;11.43;;;;;;;11.73;100.00;99445.23;1627755;86;21499;-61
2022/09/10 02:39:46;;;;;;;13.25;11.18;;;;;;;11.71;100.00;99451.05;1642364;86;21003;-60
2022/09/10 02:42:15;;;;;;;12.05;10.85;;;;;;;11.69;100.00;99447.66;1671949;83;20989;-61
2022/09/10 02:44:41;;;;;;;12.75;11.45;;;;;;;11.70;100.00;99449.34;1696524;83;21412;-60
2022/09/10 02:47:08;;;;;;;15.60;10.72;;;;;;;11.70;100.00;99449.34;1703312;83;21469;-60
2022/09/10 02:49:34;;;;;;;14.60;11.17;;;;;;;11.69;100.00;99438.51;1700313;82;20930;-60
2022/09/10 02:52:01;;;;;;;12.78;11.48;;;;;;;11.69;100.00;99442.43;1701470;83;20974;-60
2022/09/10 02:54:28;;;;;;;14.90;10.75;;;;;;;11.68;100.00;99444.68;1701196;83;20922;-60
2022/09/10 02:56:55;;;;;;;10.65;9.65;;;;;;;11.68;100.00;99447.30;1683213;83;21540;-61
2022/09/10 02:59:23;;;;;;;11.30;10.20;;;;;;;11.68;100.00;99444.68;1658167;85;21793;-61
2022/09/10 03:01:50;;;;;;;11.28;9.95;;;;;;;11.68;100.00;99446.42;1674514;83;20979;-61
2022/09/10 03:04:17;;;;;;;13.05;10.50;;;;;;;11.64;100.00;99444.45;1667460;84;20946;-60
2022/09/10 03:06:46;;;;;;;18.35;10.82;;;;;;;11.63;100.00;99446.70;1681649;84;20919;-60
2022/09/10 03:09:12;;;;;;;10.25;9.25;;;;;;;11.63;100.00;99446.70;1654676;84;20926;-61
2022/09/10 03:11:40;;;;;;;12.05;10.03;;;;;;;11.74;100.00;99445.64;1658084;84;21964;-60
2022/09/10 03:14:09;;;;;;;11.20;9.90;;;;;;;11.75;100.00;99443.39;1676468;84;20950;-60
2022/09/10 03:16:36;;;;;;;12.15;11.05;;;;;;;11.76;100.00;99447.70;1676155;84;21471;-60
2022/09/10 03:19:03;;;;;;;11.45;10.23;;;;;;;11.77;100.00;99442.84;1687518;83;20971;-61
2022/09/10 03:21:29;;;;;;;11.38;10.18;;;;;;;11.79;100.00;99447.53;1655257;85;20961;-60
2022/09/10 03:23:56;;;;;;;12.47;10.27;;;;;;;11.81;100.00;99444.34;1676301;84;21067;-61
2022/09/10 03:26:24;;;;;;;12.45;10.32;;;;;;;11.82;100.00;99444.73;1670052;84;20969;-60
2022/09/10 03:28:51;;;;;;;11.68;10.32;;;;;;;11.73;100.00;99440.01;1686860;83;20899;-60
2022/09/10 03:31:18;;;;;;;10.48;9.25;;;;;;;11.74;100.00;99449.56;1655002;85;21531;-61
2022/09/10 03:33:45;;;;;;;11.12;10.00;;;;;;;11.73;100.00;99447.02;1660759;84;21496;-61
2022/09/10 03:36:14;;;;;;;10.75;9.65;;;;;;;11.80;100.00;99449.20;1659414;85;21139;-60
2022/09/10 03:38:41;;;;;;;10.72;9.75;;;;;;;11.73;100.00;99451.77;1655740;85;21520;-60
2022/09/10 03:41:08;;;;;;;16.67;10.18;;;;;;;11.73;100.00;99450.47;1668727;85;20963;-60
2022/09/10 03:43:35;;;;;;;10.93;9.83;;;;;;;11.74;100.00;99444.33;1670547;85;20958;-60
2022/09/10 03:46:02;;;;;;;11.47;10.37;;;;;;;11.74;100.00;99446.94;1666514;84;21034;-60
2022/09/10 03:48:29;;;;;;;10.40;9.38;;;;;;;11.76;100.00;99451.63;1661856;83;21818;-60
2022/09/10 03:50:56;;;;;;;11.28;10.05;;;;;;;11.77;100.00;99452.00;1663969;85;21598;-60
2022/09/10 03:53:23;;;;;;;11.10;9.90;;;;;;;11.76;100.00;99450.33;1665159;84;20891;-60
2022/09/10 03:55:51;;;;;;;10.20;9.20;;;;;;;11.78;100.00;99445.83;1662394;83;21543;-61
2022/09/10 03:58:18;;;;;;;9.78;8.78;;;;;;;11.79;100.00;99444.92;1703123;82;21143;-61
2022/09/10 04:00:45;;;;;;;10.93;9.18;;;;;;;11.77;100.00;99444.16;1704150;83;21091;-61
2022/09/10 04:03:13;;;;;;;10.80;9.68;;;;;;;11.81;100.00;99444.34;1705843;83;21030;-60
2022/09/10 04:05:42;;;;;;;10.60;9.53;;;;;;;11.79;100.00;99442.30;1700760;83;21514;-61
2022/09/10 04:08:11;;;;;;;10.82;9.60;;;;;;;11.77;100.00;99444.16;1701418;82;21996;-60
2022/09/10 04:10:39;;;;;;;12.45;9.93;;;;;;;11.76;100.00;99443.78;1710850;82;21037;-61
2022/09/10 04:13:06;;;;;;;10.80;9.53;;;;;;;11.81;100.00;99440.42;1711929;83;21126;-60
2022/09/10 04:15:32;;;;;;;11.00;9.68;;;;;;;11.81;100.00;99440.42;1676951;84;20918;-61
2022/09/10 04:17:59;;;;;;;10.10;9.08;;;;;;;11.82;100.00;99441.28;1689187;83;20987;-60
2022/09/10 04:20:26;;;;;;;12.13;10.37;;;;;;;11.83;100.00;99441.66;1692885;83;20918;-61
2022/09/10 04:22:55;;;;;;;11.03;9.93;;;;;;;11.83;100.00;99443.80;1706469;83;20982;-60
2022/09/10 04:25:22;;;;;;;9.83;8.83;;;;;;;11.94;100.00;99442.39;1706805;83;21565;-61
2022/09/10 04:27:50;;;;;;;10.28;9.28;;;;;;;11.89;100.00;99436.56;1677333;84;20984;-60
2022/09/10 04:30:18;;;;;;;10.80;9.70;;;;;;;11.91;100.00;99442.56;1686260;84;20926;-60
2022/09/10 04:32:45;;;;;;;11.45;9.28;;;;;;;11.91;100.00;99450.41;1705813;83;21558;-59
2022/09/10 04:35:14;;;;;;;10.32;9.13;;;;;;;11.91;100.00;99437.33;1699544;83;20934;-59
2022/09/10 04:37:42;;;;;;;9.53;8.53;;;;;;;11.91;100.00;99440.78;1701463;83;21037;-58
2022/09/10 04:40:10;;;;;;;8.73;7.87;;;;;;;11.92;100.00;99435.92;1699640;83;20970;-59
2022/09/10 04:42:37;;;;;;;10.28;9.08;;;;;;;11.99;100.00;99438.58;1697141;82;20975;-59
2022/09/10 04:45:05;;;;;;;9.90;8.78;;;;;;;11.77;100.00;99403.61;1699352;82;21025;-61
2022/09/10 04:47:33;;;;;;;12.80;9.33;;;;;;;11.95;100.00;99425.74;1702660;82;21369;-58
2022/09/10 04:50:00;;;;;;;10.98;9.80;;;;;;;11.91;100.00;99430.79;1701557;83;21870;-60
2022/09/10 04:52:27;;;;;;;11.00;9.90;;;;;;;11.91;100.00;99430.79;1703655;83;20914;-59
2022/09/10 04:54:54;;;;;;;13.13;10.03;;;;;;;11.95;100.00;99429.20;1677638;84;20965;-60
2022/09/10 04:57:21;;;;;;;9.37;8.47;;;;;;;12.00;100.00;99428.47;1703766;83;21022;-60
2022/09/10 04:59:47;;;;;;;13.10;9.33;;;;;;;12.01;100.00;99428.00;1705653;82;20935;-60
2022/09/10 05:02:14;;;;;;;10.23;9.23;;;;;;;12.00;100.00;99430.25;1706736;83;21112;-60
2022/09/10 05:04:41;;;;;;;10.23;9.23;;;;;;;11.96;100.00;99424.80;1698416;83;21270;-60
2022/09/10 05:07:08;;;;;;;13.70;9.90;;;;;;;11.96;100.00;99430.03;1696079;83;21305;-60
2022/09/10 05:09:34;;;;;;;10.93;9.83;;;;;;;11.99;100.00;99435.13;1692964;83;20943;-59
2022/09/10 05:12:02;;;;;;;10.00;9.00;;;;;;;12.00;100.00;99434.17;1694989;83;20904;-60
2022/09/10 05:14:29;;;;;;;10.40;9.40;;;;;;;11.99;100.00;99435.13;1718117;82;21649;-60
2022/09/10 05:16:56;;;;;;;10.53;9.33;;;;;;;12.03;100.00;99424.84;1719776;83;20982;-60
2022/09/10 05:19:23;;;;;;;16.27;10.28;;;;;;;12.07;100.00;99425.02;1711790;83;28090;-60
2022/09/10 05:21:50;;;;;;;10.53;8.80;;;;;;;12.12;100.00;99430.84;1718090;82;21522;-60
2022/09/10 05:24:17;;;;;;;10.38;9.33;;;;;;;12.13;100.00;99419.45;1713661;83;21668;-60
2022/09/10 05:26:45;;;;;;;10.13;9.05;;;;;;;12.14;100.00;99426.36;1711482;82;21114;-60
2022/09/10 05:29:12;;;;;;;;;;;;;;;12.15;100.00;99425.42;1692698;83;20956;-60
2022/09/10 05:31:40;;;;;;;10.53;8.95;;;;;;;12.16;100.00;99427.13;1685463;83;20122;-60
2022/09/10 05:34:10;;;;;;;10.08;9.08;;;;;;;12.20;100.00;99436.47;1720783;83;20958;-59
2022/09/10 05:36:37;;;;;;;10.45;9.30;;;;;;;12.20;100.00;99436.47;1691437;83;21014;-61
2022/09/10 05:39:04;;;;;;;10.40;9.30;;;;;;;12.09;100.00;99410.09;1682028;83;21063;-62
2022/09/10 05:41:31;;;;;;;13.40;9.05;;;;;;;12.25;100.00;99442.28;1694265;84;21525;-61
2022/09/10 05:43:58;;;;;;;9.38;8.38;;;;;;;12.29;100.00;99446.42;1679036;83;20951;-61
2022/09/10 05:46:25;;;;;;;9.75;8.55;;;;;;;12.34;100.00;99450.53;1694453;84;20969;-60
2022/09/10 05:48:53;;;;;;;9.65;8.50;;;;;;;12.37;100.00;99456.42;1691492;84;20952;-60
2022/09/10 05:51:20;;;;;;;9.38;8.00;;;;;;;12.40;100.00;99456.71;1692109;84;21050;-61
2022/09/10 05:53:48;;;;;;;12.70;8.63;;;;;;;12.28;100.00;99441.27;1692998;84;20931;-61
2022/09/10 05:56:15;;;;;;;14.10;9.08;;;;;;;12.28;100.00;99441.27;1687498;84;20958;-60
2022/09/10 05:58:44;;;;;;;9.63;8.73;;;;;;;12.39;100.00;99457.66;1690965;83;20966;-60
2022/09/10 06:01:10;;;;;;;10.55;9.33;;;;;;;12.42;100.00;99464.02;1718752;82;20970;-61
2022/09/10 06:03:39;;;;;;;11.20;9.25;;;;;;;12.44;100.00;99468.70;1705887;84;21150;-60
2022/09/10 06:06:06;;;;;;;9.30;8.40;;;;;;;12.49;100.00;99468.81;1703137;84;20926;-60
2022/09/10 06:08:34;;;;;;;10.28;8.60;;;;;;;12.53;100.00;99460.30;1697748;84;20925;-60
2022/09/10 06:11:04;;;;;;;9.58;8.48;;;;;;;12.54;100.00;99462.81;1706713;82;20997;-60
2022/09/10 06:13:33;;;;;;;10.18;9.08;;;;;;;12.56;100.00;99459.27;1704119;83;20977;-60
2022/09/10 06:16:00;;;;;;;12.30;9.18;;;;;;;12.54;100.00;99459.35;1703628;82;21077;-60
2022/09/10 06:18:27;;;;;;;12.40;9.20;;;;;;;12.53;100.00;99467.68;1702845;82;20980;-60
2022/09/10 06:21:10;;;;;;;21.23;18.98;;;;;;;12.53;100.00;99464.23;1704321;83;20909;-58
2022/09/10 06:23:39;;;;;;;19.55;16.57;;;;;;;12.52;100.00;99462.55;1706837;83;21073;-60
2022/09/10 06:26:17;;;;;;;20.43;18.27;;;;;;;12.52;100.00;99477.80;1705546;83;21578;-60
2022/09/10 06:28:44;;;;;;;30.57;27.50;;;;;;;12.49;100.00;99478.41;1717532;81;21003;-60
2022/09/10 06:31:15;;;;;;;48.92;31.15;;;;;;;12.49;100.00;99473.18;1704273;84;20965;-60
2022/09/10 06:33:39;;;;;;;27.90;21.82;;;;;;;12.47;100.00;99472.45;1739605;81;20954;-60
2022/09/10 06:36:06;;;;;;;16.60;15.00;;;;;;;12.49;100.00;99469.25;1743523;81;21905;-60
2022/09/10 06:38:33;;;;;;;10.23;9.20;;;;;;;12.51;100.00;99468.70;1749244;80;20945;-60
2022/09/10 06:41:04;;;;;;;11.12;9.70;;;;;;;12.52;100.00;99470.41;1744628;80;21845;-59
2022/09/10 06:43:35;;;;;;;10.40;8.65;;;;;;;12.53;100.00;99469.47;1741915;81;20977;-59
2022/09/10 06:46:08;;;;;;;14.28;12.78;;;;;;;12.57;100.00;99468.33;1740653;80;20945;-59
2022/09/10 06:48:41;;;;;;;10.88;9.83;;;;;;;12.61;100.00;99468.55;1745313;80;20906;-59
2022/09/10 06:51:11;;;;;;;13.93;10.82;;;;;;;12.72;100.00;99470.05;1685265;83;21542;-59
2022/09/10 06:53:40;;;;;;;9.40;8.50;;;;;;;12.83;100.00;99465.95;1700894;82;21876;-60
2022/09/10 06:56:10;;;;;;;11.73;9.25;;;;;;;12.93;100.00;99467.06;1697317;82;20956;-59
2022/09/10 06:58:38;;;;;;;9.85;8.95;;;;;;;13.00;100.00;99465.77;1700801;83;20905;-59
2022/09/10 07:01:09;;;;;;;8.78;7.87;;;;;;;13.08;100.00;99468.76;1692931;84;20946;-59
2022/09/10 07:03:36;;;;;;;8.35;7.55;;;;;;;13.14;100.00;99468.37;1672344;83;21573;-60
2022/09/10 07:06:06;;;;;;;9.95;9.00;;;;;;;13.13;100.00;99465.36;1711423;83;21867;-61
2022/09/10 07:08:33;;;;;;;14.38;12.88;;;;;;;13.14;100.00;99461.81;1693122;82;20908;-60
2022/09/10 07:11:06;;;;;;;9.25;8.35;;;;;;;13.28;100.00;99470.17;1708537;83;20990;-61
2022/09/10 07:13:36;;;;;;;9.23;8.35;;;;;;;13.39;100.00;99461.64;1689816;83;20991;-60
2022/09/10 07:16:03;;;;;;;9.00;8.10;;;;;;;13.43;100.00;99463.95;1690684;83;21483;-61
2022/09/10 07:18:30;;;;;;;34.95;31.45;;;;;;;13.50;100.00;99461.80;1707443;81;21103;-61
2022/09/10 07:21:13;;;;;;;12.25;11.08;;;;;;;13.53;100.00;99464.23;1696103;83;20918;-60
2022/09/10 07:23:40;;;;;;;11.55;10.45;;;;;;;13.60;100.00;99469.44;1688680;83;20931;-61
2022/09/10 07:26:15;;;;;;;10.70;9.70;;;;;;;13.65;100.00;99463.91;1686197;83;21523;-60
2022/09/10 07:28:43;;;;;;;10.25;9.25;;;;;;;13.80;100.00;99458.13;1682494;83;21031;-60
2022/09/10 07:31:17;;;;;;;7.87;7.08;;;;;;;13.88;100.00;99456.69;1688001;83;21043;-60
2022/09/10 07:33:46;;;;;;;7.20;6.50;;;;;;;13.91;99.78;99453.03;1679940;84;21571;-60
2022/09/10 07:36:13;;;;;;;7.55;6.67;;;;;;;13.84;99.94;99457.84;1683087;83;20918;-61
2022/09/10 07:38:42;;;;;;;9.45;7.72;;;;;;;13.87;99.51;99449.77;1684713;83;21001;-60
2022/09/10 07:41:11;;;;;;;8.35;7.45;;;;;;;13.84;99.50;99451.77;1698550;82;21030;-61
2022/09/10 07:43:39;;;;;;;10.23;7.62;;;;;;;13.88;99.53;99451.92;1696705;83;21145;-60
2022/09/10 07:46:07;;;;;;;8.30;7.40;;;;;;;13.86;99.66;99447.23;1699108;83;21011;-60
2022/09/10 07:48:33;;;;;;;7.92;7.12;;;;;;;13.88;99.70;99447.98;1700510;82;20945;-60
2022/09/10 07:51:06;;;;;;;8.10;7.30;;;;;;;13.86;99.44;99448.09;1700911;82;21018;-60
2022/09/10 07:53:34;;;;;;;8.40;7.58;;;;;;;13.91;99.43;99447.78;1697380;83;21399;-60
2022/09/10 07:56:05;;;;;;;9.23;7.10;;;;;;;13.98;99.53;99440.37;1706904;83;21131;-60
2022/09/10 07:58:34;;;;;;;7.10;6.37;;;;;;;14.03;99.33;99449.62;1695284;82;21528;-60
2022/09/10 08:01:08;;;;;;;8.30;7.47;;;;;;;14.11;99.00;99451.72;1693040;84;20934;-60
2022/09/10 08:03:36;;;;;;;8.90;7.33;;;;;;;14.07;98.97;99445.84;1691639;84;20983;-60
2022/09/10 08:06:03;;;;;;;7.33;6.62;;;;;;;14.10;98.83;99450.88;1695069;84;20962;-60
2022/09/10 08:08:33;;;;;;;8.38;7.40;;;;;;;14.13;98.73;99451.15;1699187;84;21059;-60
2022/09/10 08:11:13;;;;;;;10.20;7.53;;;;;;;14.26;99.13;99450.72;1700863;83;21463;-60
2022/09/10 08:13:44;;;;;;;8.50;7.65;;;;;;;14.39;98.70;99458.59;1702151;83;21959;-60
2022/09/10 08:16:18;;;;;;;8.48;7.65;;;;;;;14.45;98.73;99456.89;1694232;83;21688;-60
2022/09/10 08:18:50;;;;;;;9.40;7.42;;;;;;;14.50;98.69;99453.45;1697171;83;20962;-60
2022/09/10 08:21:18;;;;;;;8.68;6.97;;;;;;;14.63;98.87;99456.62;1657596;85;21576;-60
2022/09/10 08:23:50;;;;;;;9.23;7.53;;;;;;;14.67;98.30;99462.02;1700087;82;20982;-60
2022/09/10 08:26:17;;;;;;;10.68;8.88;;;;;;;14.59;97.74;99464.32;1695310;84;20964;-62
2022/09/10 08:28:44;;;;;;;9.98;7.75;;;;;;;14.58;97.67;99468.73;1690627;82;21555;-60
2022/09/10 08:31:12;;;;;;;9.00;7.83;;;;;;;14.53;97.47;99471.67;1695547;84;20985;-61
2022/09/10 08:33:39;;;;;;;9.85;7.78;;;;;;;14.46;97.38;99467.76;1699095;82;21105;-61
2022/09/10 08:36:07;;;;;;;;;;;;;;;14.43;97.77;99474.53;1701264;82;20903;-61
2022/09/10 08:38:39;;;;;;;9.43;8.50;;;;;;;14.45;97.81;99471.34;1698436;84;20126;-61
2022/09/10 08:41:17;;;;;;;8.00;7.20;;;;;;;14.40;97.45;99465.55;1697310;84;21338;-61
2022/09/10 08:43:50;;;;;;;9.10;8.20;;;;;;;14.35;97.30;99470.27;1694181;82;21988;-61
2022/09/10 08:46:26;;;;;;;9.68;8.08;;;;;;;14.32;97.60;99470.47;1695386;83;21070;-61
2022/09/10 08:49:07;;;;;;;10.10;8.55;;;;;;;14.31;97.30;99469.64;1700218;83;21359;-61
2022/09/10 08:51:42;;;;;;;9.18;8.03;;;;;;;14.29;97.25;99468.05;1700946;83;20962;-61
2022/09/10 08:54:14;;;;;;;9.43;8.05;;;;;;;14.37;97.75;99471.02;1692138;82;20965;-62
2022/09/10 08:56:41;;;;;;;9.33;8.43;;;;;;;14.49;97.64;99472.80;1697676;82;21056;-61
2022/09/10 08:59:27;;;;;;;9.38;8.23;;;;;;;14.39;97.05;99468.27;1695508;82;21054;-61
2022/09/10 09:02:00;;;;;;;11.50;9.48;;;;;;;14.29;97.03;99465.42;1694970;82;20977;-62
2022/09/10 09:04:54;;;;;;;10.08;9.05;;;;;;;14.23;97.63;99465.84;1695866;84;20930;-62
2022/09/10 09:07:21;;;;;;;10.35;8.93;;;;;;;14.28;97.58;99461.09;1696222;84;21511;-61
2022/09/10 09:09:50;;;;;;;;;;;;;;;14.22;97.18;99462.34;1690523;84;20938;-61
2022/09/10 09:12:46;;;;;;;9.08;8.10;;;;;;;14.25;97.11;99458.67;1689759;84;21066;-61
2022/09/10 09:15:32;;;;;;;12.15;9.03;;;;;;;14.27;97.31;99454.17;1653464;85;21057;-61
2022/09/10 09:18:30;;;;;;;9.03;8.10;;;;;;;14.29;97.21;99457.55;1644188;86;20917;-60
2022/09/10 09:21:00;;;;;;;8.90;7.87;;;;;;;14.43;96.99;99452.69;1646680;86;20921;-61
2022/09/10 09:23:48;;;;;;;9.35;8.40;;;;;;;14.43;96.94;99442.18;1621092;85;20972;-61
2022/09/10 09:26:15;;;;;;;10.50;8.50;;;;;;;14.44;96.89;99444.69;1646435;85;21539;-61
2022/09/10 09:29:00;;;;;;;8.63;7.75;;;;;;;14.50;96.74;99447.37;1624970;87;21004;-62
2022/09/10 09:31:32;;;;;;;8.38;7.58;;;;;;;14.59;96.76;99448.56;1600966;88;21014;-62
2022/09/10 09:34:23;;;;;;;9.50;8.35;;;;;;;14.68;96.27;99447.95;1600505;88;20994;-65
2022/09/10 09:36:53;;;;;;;9.73;8.65;;;;;;;14.79;96.26;99441.48;1595607;88;21006;-62
2022/09/10 09:39:31;;;;;;;11.00;8.38;;;;;;;14.89;96.13;99442.51;1599827;88;21712;-62
2022/09/10 09:42:30;;;;;;;10.00;7.80;;;;;;;15.00;96.22;99436.02;1600089;88;20962;-62
2022/09/10 09:45:24;;;;;;;9.85;7.75;;;;;;;15.06;95.86;99436.55;1593519;88;21057;-62
2022/09/10 09:47:53;;;;;;;10.53;9.08;;;;;;;15.07;96.03;99438.22;1601012;88;20974;-63
2022/09/10 09:50:21;;;;;;;11.28;9.15;;;;;;;15.00;96.12;99439.97;1601004;88;20993;-62
2022/09/10 09:52:53;;;;;;;9.30;8.25;;;;;;;15.04;96.29;99433.17;1607329;86;21075;-62
2022/09/10 09:55:37;;;;;;;10.05;8.90;;;;;;;15.16;96.58;99434.96;1624336;86;21690;-63
2022/09/10 09:58:26;;;;;;;11.48;8.68;;;;;;;15.17;95.80;99441.89;1620847;86;21052;-62
2022/09/10 10:01:01;;;;;;;7.90;7.10;;;;;;;15.05;95.60;99437.51;1607992;87;21010;-62
2022/09/10 10:03:32;;;;;;;10.23;7.95;;;;;;;15.04;95.90;99437.13;1633687;86;20982;-63
2022/09/10 10:06:10;;;;;;;9.95;8.23;;;;;;;15.03;95.64;99435.45;1626653;86;21911;-62
2022/09/10 10:08:44;;;;;;;10.28;8.10;;;;;;;15.02;95.70;99430.67;1682196;83;21041;-62
2022/09/10 10:11:15;;;;;;;10.68;9.23;;;;;;;15.08;95.99;99429.40;1718066;81;20873;-62
2022/09/10 10:13:44;;;;;;;11.03;8.88;;;;;;;15.07;95.79;99436.91;1693189;84;21512;-61
2022/09/10 10:16:21;;;;;;;10.53;8.68;;;;;;;15.05;95.30;99440.14;1690936;84;20895;-60
2022/09/10 10:18:49;;;;;;;;;;;;;;;14.91;95.23;99439.30;1692502;82;21355;-60
2022/09/10 10:21:31;;;;;;;10.55;9.18;;;;;;;14.80;95.21;99432.64;1691326;83;20125;-60
2022/09/10 10:23:58;;;;;;;10.30;8.53;;;;;;;14.74;95.32;99434.38;1691462;83;20950;-61
2022/09/10 10:26:31;;;;;;;13.75;8.78;;;;;;;14.69;95.40;99441.73;1691665;84;20923;-61
2022/09/10 10:29:08;;;;;;;10.55;9.45;;;;;;;14.68;95.79;99442.22;1714798;83;20895;-60
2022/09/10 10:31:42;;;;;;;10.55;9.40;;;;;;;14.66;95.51;99436.70;1708117;82;21614;-61
2022/09/10 10:34:32;;;;;;;10.28;8.83;;;;;;;14.61;95.21;99437.48;1684679;83;20965;-60
2022/09/10 10:37:13;;;;;;;10.50;9.40;;;;;;;14.53;95.38;99434.05;1693335;83;21445;-60
2022/09/10 10:40:00;;;;;;;11.75;8.80;;;;;;;14.49;95.64;99432.09;1699113;82;20949;-61
2022/09/10 10:42:34;;;;;;;12.15;9.60;;;;;;;14.55;95.93;99427.75;1692742;83;20970;-60
2022/09/10 10:45:46;;;;;;;11.40;9.18;;;;;;;14.61;95.66;99429.59;1675200;83;21175;-61
2022/09/10 10:48:32;;;;;;;10.85;9.73;;;;;;;14.60;95.81;99426.61;1704525;83;20910;-61
2022/09/10 10:51:48;;;;;;;16.27;10.75;;;;;;;14.74;96.15;99413.36;1700790;83;28812;-60
2022/09/10 10:54:23;;;;;;;11.78;10.25;;;;;;;14.90;95.90;99412.66;1697447;83;20966;-60
2022/09/10 10:57:23;;;;;;;14.43;10.65;;;;;;;14.95;95.72;99411.84;1702385;83;20986;-60
2022/09/10 11:00:08;;;;;;;10.95;9.55;;;;;;;14.98;95.62;99409.02;1704694;83;21081;-60
2022/09/10 11:03:08;;;;;;;11.60;10.20;;;;;;;15.04;95.77;99404.25;1711911;83;20946;-60
2022/09/10 11:05:42;;;;;;;13.78;11.10;;;;;;;15.21;96.12;99402.12;1701392;83;20958;-61
2022/09/10 11:08:16;;;;;;;11.80;10.48;;;;;;;15.34;95.67;99396.81;1701040;83;21933;-60
2022/09/10 11:10:51;;;;;;;13.55;10.35;;;;;;;15.44;95.71;99397.83;1700904;83;20978;-60
2022/09/10 11:13:31;;;;;;;14.18;10.82;;;;;;;15.45;95.19;99395.55;1696493;83;21136;-61
2022/09/10 11:16:21;;;;;;;13.30;10.90;;;;;;;15.49;95.49;99392.25;1643514;85;20986;-60
2022/09/10 11:19:00;;;;;;;12.45;10.03;;;;;;;15.54;95.38;99394.52;1641298;85;21522;-61
2022/09/10 11:21:36;;;;;;;14.25;11.20;;;;;;;15.57;95.18;99400.42;1635446;85;21010;-60
2022/09/10 11:24:10;;;;;;;10.78;9.68;;;;;;;15.58;95.15;99403.89;1643966;85;20952;-60
2022/09/10 11:27:16;;;;;;;11.97;10.72;;;;;;;15.70;95.29;99399.06;1647776;85;21122;-63
2022/09/10 11:30:05;;;;;;;9.58;8.63;;;;;;;15.72;95.10;99385.33;1644612;85;21038;-60
2022/09/10 11:32:39;;;;;;;10.95;9.43;;;;;;;15.73;94.68;99390.94;1639848;85;21503;-61
2022/09/10 11:35:35;;;;;;;11.50;8.63;;;;;;;15.65;94.31;99398.05;1641662;85;21511;-60
2022/09/10 11:38:37;;;;;;;12.53;9.68;;;;;;;15.66;94.70;99396.28;1646518;85;21511;-60
2022/09/10 11:41:22;;;;;;;13.35;9.93;;;;;;;15.70;94.48;99392.97;1637103;85;21987;-61
2022/09/10 11:44:17;;;;;;;10.78;8.28;;;;;;;15.64;94.05;99392.91;1639524;85;20973;-61
2022/09/10 11:47:22;;;;;;;11.18;9.93;;;;;;;15.59;94.07;99392.41;1639269;84;21544;-61
2022/09/10 11:49:58;;;;;;;11.83;9.98;;;;;;;15.52;93.70;99388.55;1643283;84;20939;-61